»·PEaware :: AAY959 KLAX-KRNO

AAY959 :: KLAX-KRNO

FLIGHT INFORMATION

Flight Status: Arrived
Operator:
Allegiant Air
More flights by this operator :: More flights under this callsign
Pilot: Ben F. (13029)
Aircraft: AIRBUS A320
(A320)
More flights by this aircraft type
Origin: KLAX Los Angeles Intl
United States
Destination: KRNO Reno/Tahoe Intl
United States
More flights between these airports :: More routes between these airports
Route: LADYJ4 CSTRO FMG
File this flight plan on PilotEdge
Remarks: RMK / SIMBRIEF
Altitude:
(Current/Filed)
34,000ft
Speed:
(Current/Filed)
440kts
Departed: 05-Jul-20 02:25 PM
Arrived: 05-Jul-20 03:25 PM
Distance/Time
Traveled:
340nm/1:00
Distance/Time
To Go:
Arrived

Flight Plot

Page will automatically refresh every two minutes.

Flight plan parsing failed; only flown route is shown


Map Options




Map Legend


Flown Route
Filed Route
Departure Airport
Arrival Airport
Navaid (VOR, NDB)
Fix

Horizontal Profiles

Position Reports

Time Latitude Longitude Heading Altitude Ground
Speed
05-Jul-20 13:54 33.942051 -118.393560 269 112ft 0kts
05-Jul-20 13:55 33.942051 -118.393560 269 112ft 0kts
05-Jul-20 13:56 33.942051 -118.393560 269 112ft 0kts
05-Jul-20 13:57 33.942051 -118.393560 269 112ft 0kts
05-Jul-20 13:58 33.942051 -118.393560 269 112ft 0kts
05-Jul-20 13:59 33.942051 -118.393560 269 112ft 0kts
05-Jul-20 14:00 33.942051 -118.393560 269 112ft 0kts
05-Jul-20 14:01 33.942051 -118.393560 269 112ft 0kts
05-Jul-20 14:02 33.942051 -118.393560 269 112ft 0kts
05-Jul-20 14:03 33.942051 -118.393561 269 112ft 0kts
05-Jul-20 14:04 33.942051 -118.393560 269 112ft 0kts
05-Jul-20 14:05 33.942051 -118.393560 269 112ft 0kts
05-Jul-20 14:06 33.942051 -118.393560 269 112ft 0kts
05-Jul-20 14:07 33.942051 -118.393560 269 112ft 0kts
05-Jul-20 14:08 33.942051 -118.393560 269 112ft 0kts
05-Jul-20 14:09 33.942051 -118.393560 269 112ft 0kts
05-Jul-20 14:10 33.942051 -118.393560 269 112ft 0kts
05-Jul-20 14:11 33.942051 -118.393560 269 112ft 0kts
05-Jul-20 14:12 33.942051 -118.393560 269 112ft 0kts
05-Jul-20 14:13 33.942051 -118.393560 269 112ft 0kts
05-Jul-20 14:14 33.942051 -118.393560 269 112ft 0kts
05-Jul-20 14:15 33.942052 -118.393298 269 112ft 0kts
05-Jul-20 14:16 33.942365 -118.392886 180 112ft 1kts
05-Jul-20 14:17 33.942417 -118.392888 179 112ft 0kts
05-Jul-20 14:18 33.942417 -118.392888 179 112ft 0kts
05-Jul-20 14:19 33.940541 -118.392682 130 112ft 13kts
05-Jul-20 14:20 33.941022 -118.385490 83 112ft 31kts
05-Jul-20 14:21 33.940649 -118.381739 83 112ft 13kts
05-Jul-20 14:22 33.940698 -118.380678 108 112ft 0kts
05-Jul-20 14:23 33.939819 -118.380539 257 112ft 12kts
05-Jul-20 14:24 33.938126 -118.396976 263 173ft 163kts
05-Jul-20 14:25 33.932542 -118.460035 263 2879ft 221kts
05-Jul-20 14:26 33.925095 -118.544194 263 5519ft 269kts
05-Jul-20 14:27 33.930406 -118.633011 310 7961ft 281kts
05-Jul-20 14:28 34.002782 -118.659338 350 8039ft 287kts
05-Jul-20 14:29 34.082318 -118.670450 6 8053ft 290kts
05-Jul-20 14:30 34.163323 -118.651503 9 10447ft 305kts
05-Jul-20 14:31 34.256231 -118.635311 349 11785ft 364kts
05-Jul-20 14:32 34.357532 -118.658343 347 14054ft 377kts
05-Jul-20 14:33 34.462217 -118.681095 349 16216ft 388kts
05-Jul-20 14:34 34.570052 -118.702145 348 18220ft 399kts
05-Jul-20 14:35 34.680973 -118.723855 348 19991ft 409kts
05-Jul-20 14:36 34.785275 -118.776335 328 21598ft 413kts
05-Jul-20 14:37 34.886142 -118.845749 328 23209ft 419kts
05-Jul-20 14:38 34.988247 -118.916089 327 24607ft 427kts
05-Jul-20 14:39 35.092098 -118.987834 327 25993ft 430kts
05-Jul-20 14:40 35.195731 -119.059645 327 27259ft 434kts
05-Jul-20 14:41 35.301280 -119.132994 326 28238ft 441kts
05-Jul-20 14:42 35.408567 -119.207762 327 29134ft 448kts
05-Jul-20 14:43 35.531474 -119.243382 351 30049ft 465kts
05-Jul-20 14:44 35.660351 -119.256061 350 31078ft 465kts
05-Jul-20 14:45 35.789664 -119.268799 350 31973ft 467kts
05-Jul-20 14:46 35.918770 -119.281538 350 32854ft 468kts
05-Jul-20 14:47 36.048440 -119.294371 350 33667ft 468kts
05-Jul-20 14:48 36.178486 -119.307282 350 34003ft 467kts
05-Jul-20 14:49 36.307957 -119.320184 350 34005ft 468kts
05-Jul-20 14:50 36.437620 -119.333143 350 34006ft 468kts
05-Jul-20 14:51 36.567237 -119.346142 350 34005ft 468kts
05-Jul-20 14:52 36.697056 -119.359205 350 34006ft 468kts
05-Jul-20 14:53 36.826387 -119.372263 350 34007ft 468kts
05-Jul-20 14:54 36.956348 -119.385429 350 34008ft 469kts
05-Jul-20 14:55 37.085635 -119.398571 350 34010ft 468kts
05-Jul-20 14:56 37.215638 -119.411834 350 34092ft 468kts
05-Jul-20 14:57 37.344706 -119.425045 350 34132ft 468kts
05-Jul-20 14:58 37.474009 -119.438324 350 34148ft 467kts
05-Jul-20 14:59 37.603607 -119.451682 350 34338ft 467kts
05-Jul-20 15:00 37.732894 -119.465052 350 34339ft 468kts
05-Jul-20 15:02 37.862214 -119.478478 350 34336ft 468kts
05-Jul-20 15:03 37.991956 -119.491990 350 34334ft 468kts
05-Jul-20 15:04 38.121277 -119.505509 350 34296ft 468kts
05-Jul-20 15:05 38.232320 -119.517154 350 34172ft 467kts
05-Jul-20 15:06 38.361360 -119.530725 350 32384ft 465kts
05-Jul-20 15:07 38.487762 -119.544078 350 30443ft 453kts
05-Jul-20 15:08 38.611858 -119.557230 351 28459ft 441kts
05-Jul-20 15:09 38.732463 -119.570040 351 26489ft 430kts
05-Jul-20 15:10 38.849789 -119.582560 352 24549ft 418kts
05-Jul-20 15:11 38.963774 -119.594747 351 22645ft 407kts
05-Jul-20 15:12 39.074996 -119.606718 350 20780ft 394kts
05-Jul-20 15:13 39.176703 -119.637339 312 18813ft 363kts
05-Jul-20 15:14 39.196300 -119.752129 263 16818ft 337kts
05-Jul-20 15:15 39.188914 -119.871570 255 14909ft 328kts
05-Jul-20 15:16 39.120165 -119.924522 168 13291ft 319kts
05-Jul-20 15:17 39.046129 -119.874765 120 11964ft 313kts
05-Jul-20 15:17 39.050210 -119.783000 72 10625ft 320kts
05-Jul-20 15:19 39.135154 -119.738187 352 10075ft 304kts
05-Jul-20 15:20 39.219308 -119.746354 348 10082ft 301kts
05-Jul-20 15:20 39.287138 -119.759629 348 9311ft 285kts
05-Jul-20 15:22 39.374395 -119.767570 3 7152ft 253kts
05-Jul-20 15:22 39.431608 -119.766877 359 5713ft 244kts
05-Jul-20 15:23 39.497930 -119.766803 0 4418ft 203kts
05-Jul-20 15:24 39.513703 -119.767871 267 4418ft 10kts
05-Jul-20 15:25 39.513701 -119.768905 272 4418ft 9kts
05-Jul-20 15:26 39.512512 -119.770644 178 4418ft 7kts
05-Jul-20 15:27 39.509172 -119.770659 179 4418ft 16kts
05-Jul-20 15:28 39.507905 -119.772848 215 4418ft 3kts
05-Jul-20 15:29 39.507345 -119.772943 180 4418ft 0kts

Navigation Log

Ident Type
Flight plan parsing failed, navigation log unavailable